Pasadena, MD (21122)

10:09 AM EDT on September 23, 2014 (GMT -0400)
Old Water Oak Point Road | Change Station
CLOSE
Current Station
Personal Weather Station
Location: Pasadena, MD
Elevation: 43 ft
Nearby Weather Stations

Elev 43 ft 39.14 °N, 76.51 °W | Updated 2 seconds ago

Scattered Clouds
Scattered Clouds
59.0 °F
Feels Like 59.0 °F
N
3.0
Wind Variable Wind from NE
Gusts 6.0 mph

Today
High -- | Low -- °F
--% Chance of Precip.
Yesterday
High -- | Low -- °F
Precip. -- in
6:54 AM 7:01 PM
Waning Crescent, 0% visible
Pressure 30.35 in
Visibility 10.0 miles
Clouds Few 3800 ft
Scattered Clouds 25000 ft
Dew Point 48 °F
Humidity 68%
Rainfall 0.00 in
Snow Depth Not available.
UV 3 out of 12
Pollen 3.90 out of 12
Air Quality Not available.
Flu Activity Not available.
METAR KBWI 231354Z VRB06KT 10SM FEW038 SCT250 16/06 A3034 RMK AO2 SLP275 T01610056

More Conditions Fewer Conditions

Pressure 30.35 in
Visibility 10.0 miles
Clouds Few 3800 ft
Scattered Clouds 25000 ft
Dew Point 48 °F
Humidity 68%
Rainfall 0.00 in
Snow Depth Not available.
UV 3 out of 12
Pollen 3.90 out of 12
Air Quality Not available.
Flu Activity Not available.
METAR KBWI 231354Z VRB06KT 10SM FEW038 SCT250 16/06 A3034 RMK AO2 SLP275 T01610056

More Conditions Fewer Conditions

10-Day Weather Forecast

Almanac

Astronomy

Sep. 23, 2014 Rise Set
Actual Time 6:54 AM EDT 7:01 PM EDT
Civil Twilight 6:27 AM EDT 7:28 PM EDT
Nautical Twilight 5:56 AM EDT 7:59 PM EDT
Astronomical Twilight 5:24 AM EDT 8:30 PM EDT
Moon 6:16 AM EDT 6:39 PM EDT
Length of Visible Light 13h 00m
Length of Day
12h 06m
Tomorrow will be 2m 32s shorter.
Waning Crescent, 0% of the Moon is Illuminated
Today
Waning Crescent
Sep 24
New
Oct 1
First Quarter
Oct 8
Full
Oct 15
Last Quarter

Today's Extremes

State Highs State Lows

Community

WunderPhotos

Upload Photos

1,755,690 photos uploaded!

Nearby

Snow Depth

Station Depth Elevation
No new snow has been reported.

Earthquake Activity

City Distance Mag. Time & Date
No recent earthquake activity has been reported nearby.
Minimum magnitude displayed is 2.5.

Coastal Water Temperatures

Place Temperature
Baltimore, MD 73.9 °F
Tolchester Beach, MD 70.0 °F
Washington, DC 73.0 °F

Nearby Weather Stations